Time;durP1;ratioP1;P1;durP2;ratioP2;P2;SDS_P1;SDS_P2;PMS_P1;PMS_P2;Temp;Humidity;BMP_temperature;BMP_pressure;BME280_temperature;BME280_humidity;BME280_pressure;Samples;Min_cycle;Max_cycle;Signal;HPM_P1;HPM_P2
2023/10/20 00:01:28;;;;;;;2.05;1.80;;;21.90;62.30;;;;;;5085157;28;20085;-40
2023/10/20 00:03:54;;;;;;;2.10;1.90;;;21.90;62.30;;;;;;5102173;28;20031;-40
2023/10/20 00:06:21;;;;;;;3.13;2.13;;;21.90;62.30;;;;;;5082265;28;20391;-40
2023/10/20 00:08:47;;;;;;;2.08;1.90;;;21.90;62.30;;;;;;5094061;28;20031;-40
2023/10/20 00:11:13;;;;;;;2.42;1.88;;;21.90;62.20;;;;;;5088729;28;20048;-41
2023/10/20 00:13:40;;;;;;;2.22;1.60;;;21.90;62.20;;;;;;5086799;28;20032;-41
2023/10/20 00:16:06;;;;;;;2.15;1.95;;;21.90;62.20;;;;;;5093875;28;20113;-40
2023/10/20 00:18:32;;;;;;;2.20;2.00;;;21.80;62.20;;;;;;5100057;28;20028;-40
2023/10/20 00:20:58;;;;;;;3.28;2.22;;;21.80;62.30;;;;;;5095918;28;20086;-40
2023/10/20 00:23:25;;;;;;;1.98;1.80;;;21.80;62.30;;;;;;5090999;28;20560;-40
2023/10/20 00:25:51;;;;;;;2.30;2.10;;;21.80;62.40;;;;;;5094538;28;20052;-40
2023/10/20 00:28:17;;;;;;;2.13;1.90;;;21.80;62.40;;;;;;5099933;28;20024;-40
2023/10/20 00:30:43;;;;;;;2.03;1.83;;;21.70;62.50;;;;;;5096176;28;20284;-40
2023/10/20 00:33:09;;;;;;;2.30;2.00;;;21.80;62.40;;;;;;5100952;28;20040;-40
2023/10/20 00:35:36;;;;;;;1.80;1.70;;;21.70;62.30;;;;;;5101290;28;20063;-40
2023/10/20 00:38:03;;;;;;;3.28;2.13;;;21.70;62.30;;;;;;5088126;28;20048;-41
2023/10/20 00:40:30;;;;;;;2.22;2.03;;;21.70;62.20;;;;;;5085492;28;20070;-41
2023/10/20 00:42:56;;;;;;;;;;;21.70;62.30;;;;;;5094330;28;20501;-40
2023/10/20 00:45:22;;;;;;;2.10;1.90;;;21.70;62.20;;;;;;5093533;28;19980;-40
2023/10/20 00:47:48;;;;;;;2.55;2.35;;;21.70;62.30;;;;;;5102621;28;20040;-40
2023/10/20 00:50:14;;;;;;;2.13;1.92;;;21.60;62.10;;;;;;5104846;28;20088;-40
2023/10/20 00:52:49;;;;;;;2.40;2.10;;;21.60;62.00;;;;;;5102032;28;20025;-40
2023/10/20 00:55:15;;;;;;;2.10;2.00;;;21.60;62.20;;;;;;5101451;28;20066;-39
2023/10/20 00:57:43;;;;;;;2.05;1.95;;;21.60;62.10;;;;;;5085644;28;20020;-39
2023/10/20 01:00:10;;;;;;;2.30;2.05;;;21.60;62.00;;;;;;5098905;28;20097;-40
2023/10/20 01:02:37;;;;;;;2.72;2.15;;;21.60;61.90;;;;;;5103579;28;20119;-39
2023/10/20 01:05:08;;;;;;;2.43;2.20;;;21.50;61.80;;;;;;5086956;28;20024;-40
2023/10/20 01:07:35;;;;;;;2.35;2.03;;;21.60;61.90;;;;;;5077682;28;20035;-40
2023/10/20 01:10:09;;;;;;;2.15;1.95;;;21.50;61.90;;;;;;5094057;28;20035;-40
2023/10/20 01:12:35;;;;;;;2.28;2.08;;;21.50;61.90;;;;;;5103259;28;20126;-39
2023/10/20 01:15:04;;;;;;;2.75;2.08;;;21.50;61.90;;;;;;5099781;28;20120;-40
2023/10/20 01:17:30;;;;;;;2.28;2.08;;;21.50;61.90;;;;;;5095106;28;20033;-40
2023/10/20 01:19:59;;;;;;;3.22;2.35;;;21.50;62.00;;;;;;5104439;28;20066;-40
2023/10/20 01:22:25;;;;;;;2.22;2.03;;;21.50;61.90;;;;;;5077741;28;20092;-40
2023/10/20 01:24:52;;;;;;;2.42;2.22;;;21.40;61.90;;;;;;5094215;28;20033;-40
2023/10/20 01:27:18;;;;;;;2.53;2.10;;;21.50;62.00;;;;;;5101161;28;20036;-40
2023/10/20 01:29:45;;;;;;;2.60;2.40;;;21.40;61.90;;;;;;5088396;28;20028;-41
2023/10/20 01:32:11;;;;;;;;;;;21.40;62.00;;;;;;5096838;28;20054;-40
2023/10/20 01:34:41;;;;;;;3.70;2.50;;;21.40;62.10;;;;;;5096831;28;19915;-40
2023/10/20 01:37:11;;;;;;;2.22;2.03;;;21.40;62.10;;;;;;5100320;28;20167;-39
2023/10/20 01:39:44;;;;;;;2.60;2.40;;;21.40;62.00;;;;;;5084943;28;20048;-40
2023/10/20 01:42:10;;;;;;;2.50;2.20;;;21.30;62.70;;;;;;5097618;28;20105;-40
2023/10/20 01:44:38;;;;;;;2.50;2.30;;;21.30;62.00;;;;;;5095393;28;20044;-40
2023/10/20 01:47:05;;;;;;;2.20;2.00;;;21.30;62.10;;;;;;5104070;28;20024;-40
2023/10/20 01:49:32;;;;;;;2.83;2.17;;;21.30;62.00;;;;;;5094631;28;20063;-40
2023/10/20 01:51:59;;;;;;;2.67;2.35;;;21.30;62.10;;;;;;5093542;28;20020;-40
2023/10/20 01:54:27;;;;;;;2.55;2.35;;;21.20;62.10;;;;;;5101246;28;20031;-40
2023/10/20 01:56:54;;;;;;;2.45;2.13;;;21.20;62.10;;;;;;5103902;28;20039;-40
2023/10/20 01:59:21;;;;;;;2.58;2.38;;;21.20;62.20;;;;;;5073559;28;20438;-40
2023/10/20 02:01:48;;;;;;;2.95;2.40;;;21.20;62.20;;;;;;5091192;28;20043;-40
2023/10/20 02:04:14;;;;;;;2.60;2.40;;;21.20;62.20;;;;;;5074302;28;20031;-40
2023/10/20 02:06:42;;;;;;;2.72;2.40;;;21.10;62.20;;;;;;5086238;28;20086;-40
2023/10/20 02:09:09;;;;;;;3.70;2.30;;;21.10;62.20;;;;;;5085694;28;20064;-40
2023/10/20 02:11:36;;;;;;;3.45;2.65;;;21.10;62.20;;;;;;5085350;28;20036;-40
2023/10/20 02:14:03;;;;;;;2.75;2.42;;;21.10;62.30;;;;;;5089202;28;20028;-40
2023/10/20 02:16:33;;;;;;;3.47;2.58;;;21.10;62.30;;;;;;5086436;28;20047;-40
2023/10/20 02:18:59;;;;;;;2.70;2.38;;;21.00;62.20;;;;;;5092607;28;20095;-40
2023/10/20 02:21:25;;;;;;;2.90;2.60;;;21.00;62.20;;;;;;5084835;28;20040;-40
2023/10/20 02:23:51;;;;;;;2.55;1.95;;;21.00;62.30;;;;;;5089407;28;20586;-40
2023/10/20 02:26:19;;;;;;;2.50;2.30;;;21.00;62.30;;;;;;5095294;28;20062;-40
2023/10/20 02:28:45;;;;;;;2.83;2.50;;;21.00;62.40;;;;;;5094374;28;20033;-40
2023/10/20 02:31:14;;;;;;;3.75;2.70;;;20.90;62.40;;;;;;5096927;28;20034;-40
2023/10/20 02:33:40;;;;;;;3.10;2.80;;;20.90;62.40;;;;;;5102734;28;20036;-40
2023/10/20 02:36:06;;;;;;;3.38;2.60;;;20.90;62.40;;;;;;5097258;28;20040;-40
2023/10/20 02:38:32;;;;;;;2.88;2.60;;;20.90;62.40;;;;;;5094725;28;20062;-40
2023/10/20 02:40:59;;;;;;;3.47;2.30;;;20.90;62.40;;;;;;5095889;28;20036;-40
2023/10/20 02:43:26;;;;;;;2.78;2.38;;;20.90;62.40;;;;;;5078470;28;20031;-40
2023/10/20 02:45:53;;;;;;;3.70;2.50;;;20.90;62.50;;;;;;5092846;28;20060;-40
2023/10/20 02:48:19;;;;;;;;;;;20.80;62.50;;;;;;5092586;28;20044;-40
2023/10/20 02:50:45;;;;;;;2.95;2.70;;;20.80;62.60;;;;;;5088369;28;19912;-40
2023/10/20 02:53:13;;;;;;;2.92;2.65;;;20.80;62.60;;;;;;5090695;28;20036;-40
2023/10/20 02:55:41;;;;;;;4.38;2.75;;;20.80;62.60;;;;;;5085688;28;20117;-40
2023/10/20 02:58:10;;;;;;;4.35;2.85;;;20.80;62.80;;;;;;5085371;28;20044;-40
2023/10/20 03:00:40;;;;;;;3.10;2.80;;;20.70;62.60;;;;;;5062384;28;20021;-40
2023/10/20 03:03:08;;;;;;;3.05;2.63;;;20.70;62.60;;;;;;5092274;28;20033;-41
2023/10/20 03:05:34;;;;;;;3.22;2.90;;;20.70;62.70;;;;;;5094103;28;20064;-40
2023/10/20 03:08:01;;;;;;;2.67;2.47;;;20.70;62.60;;;;;;5090794;28;20024;-40
2023/10/20 03:10:27;;;;;;;;;;;20.70;62.80;;;;;;5099173;28;20043;-40
2023/10/20 03:12:53;;;;;;;4.05;2.67;;;20.60;62.70;;;;;;5098044;28;19908;-40
2023/10/20 03:15:20;;;;;;;2.42;2.22;;;20.60;62.90;;;;;;5091688;28;20075;-40
2023/10/20 03:17:46;;;;;;;3.25;2.65;;;20.60;62.90;;;;;;5092970;28;20048;-40
2023/10/20 03:20:17;;;;;;;3.83;2.70;;;20.60;63.00;;;;;;5094297;28;20032;-40
2023/10/20 03:22:44;;;;;;;4.15;2.78;;;20.60;63.00;;;;;;5104223;28;20119;-40
2023/10/20 03:25:10;;;;;;;4.75;3.10;;;20.60;62.90;;;;;;5098664;28;20127;-39
2023/10/20 03:27:37;;;;;;;3.65;2.60;;;20.60;62.90;;;;;;5101478;28;20038;-39
2023/10/20 03:30:08;;;;;;;5.20;2.70;;;20.50;62.80;;;;;;5097206;28;20051;-40
2023/10/20 03:32:35;;;;;;;2.97;2.72;;;20.50;62.90;;;;;;5093688;28;20074;-39
2023/10/20 03:35:01;;;;;;;3.25;2.50;;;20.50;62.90;;;;;;5102407;28;20670;-40
2023/10/20 03:37:28;;;;;;;4.07;2.83;;;20.50;62.90;;;;;;5098726;28;20039;-39
2023/10/20 03:39:54;;;;;;;4.80;2.90;;;20.50;63.00;;;;;;5102344;28;20079;-40
2023/10/20 03:42:21;;;;;;;3.20;2.78;;;20.40;63.00;;;;;;5093758;28;20351;-40
2023/10/20 03:44:48;;;;;;;3.53;2.80;;;20.40;63.00;;;;;;5088114;28;20087;-40
2023/10/20 03:47:17;;;;;;;3.00;2.70;;;20.40;63.10;;;;;;5094285;28;20368;-39
2023/10/20 03:49:43;;;;;;;3.17;2.60;;;20.40;63.10;;;;;;5094099;28;20043;-39
2023/10/20 03:52:11;;;;;;;3.28;2.67;;;20.40;63.10;;;;;;5095921;28;20033;-39
2023/10/20 03:54:40;;;;;;;5.70;2.70;;;20.30;63.00;;;;;;5092909;28;20025;-39
2023/10/20 03:57:07;;;;;;;3.05;2.75;;;20.30;63.10;;;;;;5094879;28;20028;-40
2023/10/20 03:59:34;;;;;;;3.20;2.90;;;20.30;63.20;;;;;;5087762;28;20025;-40
2023/10/20 04:02:01;;;;;;;3.25;2.53;;;20.30;63.20;;;;;;5098644;28;20449;-40
2023/10/20 04:04:28;;;;;;;4.22;2.78;;;20.30;63.10;;;;;;5100401;28;20032;-40
2023/10/20 04:06:54;;;;;;;3.47;2.90;;;20.30;63.20;;;;;;5095766;28;20035;-39
2023/10/20 04:09:20;;;;;;;3.10;2.80;;;20.20;63.20;;;;;;5100979;28;20124;-39
2023/10/20 04:11:46;;;;;;;3.42;2.85;;;20.20;63.10;;;;;;5101682;28;20031;-40
2023/10/20 04:14:12;;;;;;;3.75;2.67;;;20.20;63.10;;;;;;5101423;28;20043;-40
2023/10/20 04:16:42;;;;;;;2.83;2.63;;;20.20;63.10;;;;;;5100856;28;20051;-40
2023/10/20 04:19:14;;;;;;;3.17;2.83;;;20.20;63.10;;;;;;5101079;28;20036;-39
2023/10/20 04:21:41;;;;;;;3.97;3.40;;;20.20;63.20;;;;;;5100785;28;20056;-40
2023/10/20 04:24:07;;;;;;;3.20;2.90;;;20.10;63.10;;;;;;5091057;28;20024;-40
2023/10/20 04:26:37;;;;;;;3.45;3.15;;;20.10;63.10;;;;;;5083475;28;20037;-41
2023/10/20 04:50:56;;;;;;;3.33;2.70;;;20.10;63.50;;;;;;5087003;28;20061;-40
2023/10/20 05:01:59;;;;;;;2.63;2.42;;;20.20;63.70;;;;;;5090264;28;20028;-41
2023/10/20 05:03:58;;;;;;;3.00;2.55;;;20.10;63.70;;;;;;5069372;28;20127;-41
2023/10/20 05:06:41;;;;;;;3.08;2.65;;;20.10;63.70;;;;;;5085553;28;20033;-41
2023/10/20 05:09:09;;;;;;;2.80;2.60;;;20.10;63.70;;;;;;5083481;28;20759;-40
2023/10/20 05:11:35;;;;;;;2.97;2.60;;;20.10;63.80;;;;;;5090815;28;20043;-41
2023/10/20 05:14:02;;;;;;;2.75;2.38;;;20.00;63.60;;;;;;5093551;28;20024;-41
2023/10/20 05:16:28;;;;;;;3.03;2.50;;;20.10;63.90;;;;;;5085233;28;20515;-41
2023/10/20 05:18:55;;;;;;;2.90;2.70;;;20.20;64.20;;;;;;5088103;28;20035;-40
2023/10/20 05:21:21;;;;;;;3.55;2.78;;;20.20;64.00;;;;;;5090607;28;20043;-41
2023/10/20 05:23:49;;;;;;;3.03;2.40;;;20.10;63.80;;;;;;5093889;28;20029;-40
2023/10/20 05:26:16;;;;;;;3.13;2.67;;;20.10;63.80;;;;;;5085940;28;20459;-40
2023/10/20 05:28:42;;;;;;;3.35;2.40;;;20.10;63.80;;;;;;5092761;28;20052;-40
2023/10/20 05:31:08;;;;;;;2.85;2.50;;;20.00;63.70;;;;;;5095803;28;20031;-40
2023/10/20 05:33:34;;;;;;;2.80;2.60;;;20.00;63.80;;;;;;5090840;28;20039;-41
2023/10/20 05:36:03;;;;;;;3.85;2.60;;;20.00;63.70;;;;;;5104144;28;20044;-40
2023/10/20 05:38:29;;;;;;;2.50;2.30;;;20.00;63.90;;;;;;5094375;28;20034;-41
2023/10/20 05:41:00;;;;;;;2.30;2.10;;;20.10;64.20;;;;;;5098129;28;20060;-41
2023/10/20 05:43:26;;;;;;;2.22;2.03;;;20.10;63.90;;;;;;5103327;28;20036;-41
2023/10/20 05:45:53;;;;;;;3.95;1.63;;;20.10;63.80;;;;;;5101329;28;20393;-40
2023/10/20 05:48:19;;;;;;;3.07;2.47;;;20.10;63.80;;;;;;5093062;28;20020;-40
2023/10/20 05:50:45;;;;;;;3.23;2.63;;;20.10;63.80;;;;;;5086699;28;20037;-41
2023/10/20 05:53:11;;;;;;;2.88;2.42;;;20.00;63.70;;;;;;5085819;28;20477;-40
2023/10/20 05:55:38;;;;;;;2.60;2.30;;;20.00;63.80;;;;;;5095275;28;20058;-41
2023/10/20 05:58:06;;;;;;;2.60;2.30;;;20.00;63.70;;;;;;5096345;28;20028;-40
2023/10/20 06:00:32;;;;;;;2.30;2.10;;;20.10;64.10;;;;;;5091527;28;20043;-40
2023/10/20 06:02:58;;;;;;;2.20;2.00;;;20.10;64.00;;;;;;5097929;28;20762;-41
2023/10/20 06:05:24;;;;;;;3.03;2.43;;;20.10;63.80;;;;;;5102286;28;20571;-41
2023/10/20 06:07:50;;;;;;;3.05;2.55;;;20.10;63.80;;;;;;5103494;28;20031;-40
2023/10/20 06:10:22;;;;;;;2.28;2.08;;;20.10;64.50;;;;;;5103589;28;20036;-41
2023/10/20 06:12:52;;;;;;;2.75;2.47;;;20.00;63.60;;;;;;5093865;28;20028;-41
2023/10/20 06:15:21;;;;;;;2.92;2.40;;;20.00;63.70;;;;;;5075281;28;20056;-41
2023/10/20 06:17:51;;;;;;;2.80;2.60;;;20.00;63.70;;;;;;5101130;28;20028;-40
2023/10/20 06:20:18;;;;;;;2.85;2.55;;;20.00;63.70;;;;;;5078121;28;20036;-40
2023/10/20 06:22:44;;;;;;;2.35;2.15;;;20.10;64.10;;;;;;5102973;28;20036;-41
2023/10/20 06:25:13;;;;;;;3.35;2.22;;;20.10;64.00;;;;;;5089441;28;20036;-41
2023/10/20 06:27:43;;;;;;;2.65;2.35;;;20.10;63.80;;;;;;5092132;28;20028;-40
2023/10/20 06:30:21;;;;;;;2.70;2.50;;;20.10;63.80;;;;;;5088067;28;20493;-41
2023/10/20 06:32:56;;;;;;;3.60;2.60;;;20.10;63.70;;;;;;5091896;28;20401;-40
2023/10/20 06:35:30;;;;;;;2.78;2.50;;;20.00;63.60;;;;;;5091944;28;20040;-40
2023/10/20 06:38:18;;;;;;;2.95;2.65;;;20.00;63.60;;;;;;5096868;28;20091;-40
2023/10/20 06:40:44;;;;;;;2.45;2.25;;;20.00;63.60;;;;;;5102065;28;20039;-40
2023/10/20 06:43:10;;;;;;;2.40;2.10;;;20.00;63.80;;;;;;5096838;28;20126;-41
2023/10/20 06:45:36;;;;;;;3.30;2.50;;;20.10;64.10;;;;;;5100667;28;20036;-40
2023/10/20 06:48:03;;;;;;;2.45;2.20;;;20.10;63.90;;;;;;5084897;28;20482;-40
2023/10/20 06:50:29;;;;;;;2.57;2.37;;;20.10;63.80;;;;;;5094567;28;20039;-40
2023/10/20 06:52:56;;;;;;;3.22;2.22;;;20.10;63.70;;;;;;5071337;28;20058;-40
2023/10/20 06:55:22;;;;;;;2.95;2.58;;;20.00;63.60;;;;;;5101703;28;20434;-40
2023/10/20 06:57:48;;;;;;;2.60;2.40;;;20.00;63.60;;;;;;5095316;28;20054;-39
2023/10/20 07:00:17;;;;;;;3.38;2.40;;;20.00;63.60;;;;;;5090079;28;20029;-40
2023/10/20 07:02:44;;;;;;;2.60;2.30;;;20.00;63.70;;;;;;5099059;28;20032;-40
2023/10/20 07:05:10;;;;;;;2.55;2.25;;;20.10;64.10;;;;;;5092402;28;20089;-40
2023/10/20 07:07:36;;;;;;;2.67;2.30;;;20.10;63.90;;;;;;5100470;28;20043;-40
2023/10/20 07:10:03;;;;;;;2.60;2.22;;;20.10;63.80;;;;;;5102613;28;20027;-40
2023/10/20 07:12:29;;;;;;;2.70;2.35;;;20.10;63.70;;;;;;5101854;28;20379;-40
2023/10/20 07:14:56;;;;;;;2.33;2.13;;;20.10;63.70;;;;;;5097546;28;20037;-40
2023/10/20 07:17:22;;;;;;;2.72;2.53;;;20.00;63.60;;;;;;5096345;28;20036;-40
2023/10/20 07:19:48;;;;;;;2.83;2.53;;;20.00;63.50;;;;;;5097712;28;20020;-40
2023/10/20 07:22:14;;;;;;;2.65;2.33;;;20.00;63.40;;;;;;5084680;28;20058;-40
2023/10/20 07:24:42;;;;;;;2.47;2.28;;;20.00;63.70;;;;;;5094566;28;20029;-40
2023/10/20 07:27:08;;;;;;;2.20;2.00;;;20.10;64.00;;;;;;5101813;28;20058;-40
2023/10/20 07:29:35;;;;;;;2.47;2.28;;;20.10;63.90;;;;;;5095611;28;20028;-39
2023/10/20 07:32:01;;;;;;;2.45;2.25;;;20.10;63.80;;;;;;5102547;28;20039;-40
2023/10/20 07:34:27;;;;;;;2.55;2.10;;;20.10;63.70;;;;;;5095186;28;20032;-40
2023/10/20 07:36:53;;;;;;;2.78;2.22;;;20.10;63.70;;;;;;5101938;28;20039;-39
2023/10/20 07:39:19;;;;;;;2.40;2.10;;;20.00;63.50;;;;;;5094839;28;20035;-40
2023/10/20 07:41:47;;;;;;;2.80;2.50;;;20.00;63.40;;;;;;5091083;28;20076;-40
2023/10/20 07:44:15;;;;;;;2.20;2.00;;;20.00;63.40;;;;;;5098145;28;20061;-40
2023/10/20 07:46:42;;;;;;;3.92;2.63;;;20.10;63.90;;;;;;5083913;28;20021;-40
2023/10/20 07:49:11;;;;;;;2.43;2.20;;;20.10;63.90;;;;;;5095558;28;20087;-40
2023/10/20 07:51:39;;;;;;;2.55;2.20;;;20.10;63.80;;;;;;5101081;28;20032;-40
2023/10/20 07:54:06;;;;;;;2.08;1.88;;;20.10;63.70;;;;;;5087965;28;20040;-39
2023/10/20 07:56:32;;;;;;;2.63;2.42;;;20.10;63.60;;;;;;5089788;28;20039;-39
2023/10/20 07:58:58;;;;;;;2.63;2.40;;;20.00;63.50;;;;;;5094251;28;20028;-39
2023/10/20 08:01:25;;;;;;;2.10;1.90;;;20.00;63.50;;;;;;5101229;28;20706;-40
2023/10/20 08:03:52;;;;;;;2.30;2.10;;;20.00;63.50;;;;;;5087720;28;20035;-40
2023/10/20 08:06:19;;;;;;;2.38;2.08;;;20.00;63.60;;;;;;5093672;28;20485;-40
2023/10/20 08:08:45;;;;;;;2.75;2.50;;;20.10;64.00;;;;;;5098486;28;20040;-39
2023/10/20 08:11:11;;;;;;;2.33;2.13;;;20.20;64.10;;;;;;5084075;28;20055;-41
2023/10/20 08:13:38;;;;;;;2.23;2.03;;;20.20;63.90;;;;;;5092991;28;20031;-39
2023/10/20 08:16:06;;;;;;;2.88;2.17;;;20.10;63.70;;;;;;5084031;28;20358;-39
2023/10/20 08:18:35;;;;;;;2.60;2.10;;;20.10;63.80;;;;;;5096761;28;20031;-41
2023/10/20 08:21:09;;;;;;;2.17;1.92;;;20.10;63.70;;;;;;5089961;28;20036;-41
2023/10/20 08:23:36;;;;;;;2.55;2.35;;;20.10;63.60;;;;;;5090603;28;20107;-41
2023/10/20 08:26:02;;;;;;;2.88;1.85;;;20.00;63.40;;;;;;5077720;28;20077;-40
2023/10/20 08:28:28;;;;;;;1.60;1.50;;;20.00;63.70;;;;;;5092824;28;20056;-40
2023/10/20 08:31:13;;;;;;;1.55;1.45;;;20.10;64.00;;;;;;5101421;28;20059;-40
2023/10/20 08:33:39;;;;;;;2.47;2.10;;;20.20;64.10;;;;;;5093232;28;20063;-41
2023/10/20 08:36:15;;;;;;;4.13;2.10;;;20.20;63.90;;;;;;5095316;28;20033;-40
2023/10/20 08:38:45;;;;;;;2.95;2.22;;;20.20;63.80;;;;;;5093940;28;20032;-40
2023/10/20 08:41:13;;;;;;;2.38;2.00;;;20.10;63.70;;;;;;5094997;28;20048;-39
2023/10/20 08:43:43;;;;;;;1.98;1.77;;;20.10;63.70;;;;;;5090747;28;20024;-39
2023/10/20 08:46:10;;;;;;;1.80;1.70;;;20.00;63.60;;;;;;5090390;28;20059;-41
2023/10/20 08:48:37;;;;;;;3.05;2.13;;;20.00;63.50;;;;;;5089685;28;20056;-41
2023/10/20 08:51:04;;;;;;;2.42;2.22;;;20.00;63.60;;;;;;5088186;28;20099;-40
2023/10/20 08:53:34;;;;;;;2.03;1.90;;;20.10;63.90;;;;;;5082247;28;20092;-40
2023/10/20 08:56:02;;;;;;;2.30;2.10;;;20.20;64.10;;;;;;5065244;28;20043;-40
2023/10/20 08:58:29;;;;;;;2.47;2.00;;;20.20;64.00;;;;;;5083983;28;20029;-41
2023/10/20 09:00:56;;;;;;;1.98;1.80;;;20.10;63.80;;;;;;5091491;28;20028;-40
2023/10/20 09:03:22;;;;;;;2.33;2.13;;;20.10;63.70;;;;;;5083687;28;20111;-40
2023/10/20 09:05:48;;;;;;;2.13;1.92;;;20.10;63.60;;;;;;5076987;28;20039;-40
2023/10/20 09:08:15;;;;;;;2.50;2.20;;;20.00;63.50;;;;;;5069486;28;20032;-40
2023/10/20 09:10:47;;;;;;;2.97;2.30;;;20.00;63.50;;;;;;5087374;28;20047;-40
2023/10/20 09:13:13;;;;;;;1.90;1.80;;;20.00;63.60;;;;;;5095096;28;20028;-40
2023/10/20 09:15:40;;;;;;;2.08;1.92;;;20.10;63.90;;;;;;5078939;28;20561;-41
2023/10/20 09:18:10;;;;;;;2.40;1.97;;;20.20;64.20;;;;;;5096117;28;20036;-40
2023/10/20 09:20:36;;;;;;;1.95;1.75;;;20.20;63.90;;;;;;5069994;28;20064;-40
2023/10/20 09:23:12;;;;;;;2.20;2.00;;;20.20;63.80;;;;;;5092335;28;20019;-41
2023/10/20 09:25:39;;;;;;;2.00;1.80;;;20.10;63.70;;;;;;5096052;28;20115;-40
2023/10/20 09:28:05;;;;;;;3.45;2.53;;;20.10;63.70;;;;;;5081238;28;20032;-41
2023/10/20 09:30:32;;;;;;;2.17;1.98;;;20.10;63.60;;;;;;5093889;28;20051;-40
2023/10/20 09:32:58;;;;;;;2.13;1.93;;;20.00;63.40;;;;;;5087052;28;20024;-40
2023/10/20 09:35:25;;;;;;;2.38;2.17;;;20.00;63.40;;;;;;5088401;28;20063;-40
2023/10/20 09:37:54;;;;;;;2.35;2.15;;;20.00;63.60;;;;;;5093645;28;20024;-40
2023/10/20 09:40:20;;;;;;;2.28;2.00;;;20.10;63.90;;;;;;5094284;28;20044;-41
2023/10/20 09:42:57;;;;;;;2.60;2.30;;;20.20;64.00;;;;;;5085465;28;20036;-40
2023/10/20 09:45:32;;;;;;;2.00;1.80;;;20.20;63.90;;;;;;5091056;28;20029;-40
2023/10/20 09:48:04;;;;;;;2.20;2.00;;;20.20;63.70;;;;;;5089631;28;20081;-39
2023/10/20 09:50:31;;;;;;;2.55;2.10;;;20.10;63.60;;;;;;5094923;28;20090;-40
2023/10/20 09:52:58;;;;;;;;;;;20.10;63.60;;;;;;5068905;28;20025;-40
2023/10/20 09:55:25;;;;;;;2.20;2.00;;;20.10;63.60;;;;;;5100771;28;19929;-40
2023/10/20 09:57:51;;;;;;;2.42;2.22;;;20.00;63.40;;;;;;5071523;28;20031;-41
2023/10/20 10:00:30;;;;;;;2.10;1.90;;;20.10;63.80;;;;;;5078918;28;20032;-40
2023/10/20 10:02:58;;;;;;;2.22;2.03;;;20.20;64.10;;;;;;5090426;28;20028;-40
2023/10/20 10:05:24;;;;;;;2.45;2.00;;;20.20;63.90;;;;;;5096326;28;20033;-40
2023/10/20 10:08:03;;;;;;;1.80;1.70;;;20.20;63.80;;;;;;5084922;28;20033;-40
2023/10/20 10:10:29;;;;;;;3.25;1.92;;;20.10;63.70;;;;;;5092605;28;20028;-40
2023/10/20 10:13:04;;;;;;;2.78;2.20;;;20.10;63.60;;;;;;5085136;28;20059;-41
2023/10/20 10:15:40;;;;;;;2.10;1.90;;;20.10;63.60;;;;;;5095738;28;20408;-41
2023/10/20 10:18:13;;;;;;;2.33;2.13;;;20.00;63.40;;;;;;5096854;28;20044;-41
2023/10/20 10:20:46;;;;;;;2.15;1.95;;;20.00;63.40;;;;;;5075747;28;20048;-40
2023/10/20 10:23:14;;;;;;;1.95;1.77;;;20.00;63.70;;;;;;5086860;28;20037;-40
2023/10/20 10:25:47;;;;;;;2.38;2.03;;;20.10;64.00;;;;;;5085845;28;20163;-39
2023/10/20 10:28:14;;;;;;;2.10;1.80;;;20.20;64.00;;;;;;5093562;28;20033;-40
2023/10/20 10:30:41;;;;;;;1.85;1.75;;;20.20;63.80;;;;;;5095248;28;20632;-40
2023/10/20 10:33:08;;;;;;;2.15;1.95;;;20.20;63.80;;;;;;5091028;28;20047;-40
2023/10/20 10:35:36;;;;;;;2.60;2.03;;;20.10;63.70;;;;;;5101411;28;20051;-40
2023/10/20 10:38:09;;;;;;;2.25;2.03;;;20.10;63.60;;;;;;5092457;28;20021;-41
2023/10/20 10:40:45;;;;;;;2.28;2.08;;;20.10;63.50;;;;;;5087195;28;20033;-42
2023/10/20 10:43:15;;;;;;;3.15;2.25;;;20.00;63.50;;;;;;5096356;28;20040;-43
2023/10/20 10:45:42;;;;;;;2.03;1.88;;;20.00;63.40;;;;;;5093973;28;20036;-47
2023/10/20 10:48:11;;;;;;;2.33;1.73;;;20.00;63.70;;;;;;5089391;28;20036;-45
2023/10/20 10:50:40;;;;;;;1.98;1.77;;;20.10;63.90;;;;;;5093553;28;20111;-45
2023/10/20 10:53:07;;;;;;;2.40;2.00;;;20.20;63.90;;;;;;5091377;28;20031;-44
2023/10/20 10:55:36;;;;;;;3.42;2.10;;;20.20;63.70;;;;;;5086920;28;20028;-44
2023/10/20 10:58:07;;;;;;;2.30;1.77;;;20.10;63.60;;;;;;5083968;28;20036;-43
2023/10/20 11:00:34;;;;;;;2.28;2.08;;;20.10;63.70;;;;;;5085529;28;20109;-44
2023/10/20 11:03:01;;;;;;;3.58;2.30;;;20.10;63.50;;;;;;5067003;28;20032;-44
2023/10/20 11:05:28;;;;;;;;;;;20.00;63.40;;;;;;5093112;28;20041;-43
2023/10/20 11:07:56;;;;;;;3.85;2.15;;;20.00;63.40;;;;;;5090521;28;20652;-43
2023/10/20 11:10:26;;;;;;;1.75;1.65;;;20.10;63.90;;;;;;5067502;28;20048;-44
2023/10/20 11:12:56;;;;;;;4.13;2.17;;;20.20;64.20;;;;;;5089505;28;20083;-43
2023/10/20 11:15:30;;;;;;;2.33;2.08;;;20.20;64.10;;;;;;5094109;28;20142;-44
2023/10/20 11:17:57;;;;;;;2.65;2.13;;;20.20;64.00;;;;;;5095579;28;20433;-43
2023/10/20 11:20:24;;;;;;;;;;;20.20;63.90;;;;;;5086688;28;20036;-47
2023/10/20 11:22:56;;;;;;;2.20;1.95;;;20.10;63.80;;;;;;5091680;28;20001;-44
2023/10/20 11:25:23;;;;;;;2.90;1.90;;;20.10;63.80;;;;;;5070342;28;20488;-44
2023/10/20 11:27:56;;;;;;;2.93;1.47;;;20.10;63.80;;;;;;5094273;28;20031;-43
2023/10/20 11:30:34;;;;;;;2.50;1.88;;;20.00;63.70;;;;;;5087815;28;20042;-42
2023/10/20 11:33:01;;;;;;;2.78;1.70;;;20.10;64.10;;;;;;5091015;28;20032;-43
2023/10/20 11:35:27;;;;;;;2.17;1.85;;;20.20;64.70;;;;;;5097720;28;20024;-43
2023/10/20 11:37:54;;;;;;;2.10;1.90;;;20.20;64.30;;;;;;5097299;28;20381;-44
2023/10/20 11:40:20;;;;;;;2.30;2.10;;;20.20;64.20;;;;;;5098508;28;20042;-43
2023/10/20 11:42:48;;;;;;;2.22;1.90;;;20.20;64.20;;;;;;5092116;28;20056;-43
2023/10/20 11:45:14;;;;;;;2.28;1.80;;;20.20;64.20;;;;;;5080326;28;20097;-43
2023/10/20 11:47:41;;;;;;;3.03;1.80;;;20.20;64.20;;;;;;5084356;28;20033;-43
2023/10/20 11:50:18;;;;;;;2.67;1.95;;;20.10;64.10;;;;;;5095679;28;20058;-51
2023/10/20 11:52:45;;;;;;;2.25;2.03;;;20.10;64.10;;;;;;5092945;28;20031;-43
2023/10/20 11:55:11;;;;;;;3.25;2.05;;;20.10;64.00;;;;;;5086612;28;20051;-43
2023/10/20 11:57:38;;;;;;;2.50;1.63;;;20.20;64.50;;;;;;5090749;28;20033;-43
2023/10/20 12:00:13;;;;;;;2.60;1.80;;;20.20;64.60;;;;;;5097099;28;20028;-43
2023/10/20 12:02:39;;;;;;;2.10;1.80;;;20.30;64.70;;;;;;5100791;28;20036;-44
2023/10/20 12:05:06;;;;;;;2.10;1.80;;;20.30;64.50;;;;;;5096216;28;20045;-44
2023/10/20 12:07:33;;;;;;;2.83;1.83;;;20.20;64.50;;;;;;5092050;28;20168;-44
2023/10/20 12:09:59;;;;;;;2.65;1.85;;;20.20;64.50;;;;;;5082918;28;20040;-45
2023/10/20 12:12:25;;;;;;;3.40;2.03;;;20.20;64.50;;;;;;5079072;28;20059;-43
2023/10/20 12:14:51;;;;;;;2.30;1.70;;;20.20;64.40;;;;;;5087509;28;20119;-43
2023/10/20 12:17:18;;;;;;;3.15;2.00;;;20.20;64.40;;;;;;5087844;28;20032;-42
2023/10/20 12:19:44;;;;;;;2.20;2.00;;;20.20;64.40;;;;;;5098252;28;20036;-42
2023/10/20 12:22:10;;;;;;;2.22;1.70;;;20.20;64.50;;;;;;5084120;28;20058;-41
2023/10/20 12:24:36;;;;;;;2.58;1.80;;;20.20;64.90;;;;;;5091600;28;21900;-41
2023/10/20 12:27:03;;;;;;;1.75;1.65;;;20.30;64.90;;;;;;5095702;28;20122;-41
2023/10/20 12:29:30;;;;;;;4.25;2.05;;;20.30;64.90;;;;;;5099182;28;20028;-41
2023/10/20 12:31:59;;;;;;;2.42;1.92;;;20.30;64.70;;;;;;5083152;28;20040;-41
2023/10/20 12:34:26;;;;;;;3.03;1.88;;;20.30;64.80;;;;;;5091110;28;20092;-41
2023/10/20 12:36:52;;;;;;;2.45;1.88;;;20.20;65.40;;;;;;5090795;28;20817;-41
2023/10/20 12:39:20;;;;;;;2.80;1.67;;;20.20;64.70;;;;;;5106398;28;20057;-42
2023/10/20 12:41:46;;;;;;;2.55;1.60;;;20.20;64.70;;;;;;5081663;28;20135;-41
2023/10/20 12:44:13;;;;;;;2.13;1.70;;;20.20;64.60;;;;;;5066310;28;20033;-41
2023/10/20 12:46:40;;;;;;;2.40;1.95;;;20.20;64.60;;;;;;5076559;28;20037;-41
2023/10/20 12:49:06;;;;;;;2.15;1.80;;;20.20;64.80;;;;;;5077125;28;20081;-41
2023/10/20 12:51:33;;;;;;;2.40;1.90;;;20.30;65.10;;;;;;5075230;28;20040;-41
2023/10/20 12:54:01;;;;;;;2.03;1.50;;;20.30;65.20;;;;;;5066380;28;20024;-41
2023/10/20 12:56:47;;;;;;;1.92;1.60;;;20.30;65.10;;;;;;5076269;28;20041;-41
2023/10/20 12:59:14;;;;;;;1.65;1.55;;;20.30;65.00;;;;;;5023648;28;20055;-41
2023/10/20 13:01:40;;;;;;;2.33;1.85;;;20.30;64.90;;;;;;5031534;28;20053;-41
2023/10/20 13:04:07;;;;;;;2.35;1.80;;;20.30;65.00;;;;;;5026395;28;20046;-41
2023/10/20 13:06:33;;;;;;;1.95;1.63;;;20.30;65.00;;;;;;5024539;28;20034;-41
2023/10/20 13:08:59;;;;;;;3.55;1.67;;;20.30;65.00;;;;;;5025284;28;20069;-42
2023/10/20 13:11:26;;;;;;;3.05;1.63;;;20.30;64.90;;;;;;5040295;28;20033;-41
2023/10/20 13:13:52;;;;;;;1.75;1.50;;;20.20;64.80;;;;;;5029651;28;20030;-42
2023/10/20 13:16:18;;;;;;;2.17;1.97;;;20.20;64.80;;;;;;5027623;28;20057;-41
2023/10/20 13:18:44;;;;;;;2.28;1.95;;;20.20;64.80;;;;;;5023234;28;20030;-41
2023/10/20 13:21:11;;;;;;;1.88;1.35;;;20.30;65.20;;;;;;5028484;28;20062;-41